createdAt,value
2023-01-28T00:00:58.246Z,99791.59
2023-01-28T00:03:41.495Z,99801.53
2023-01-28T00:06:25.313Z,99797.66
2023-01-28T00:09:06.192Z,99797.75
2023-01-28T00:11:38.384Z,99794.63
2023-01-28T00:14:14.580Z,99801.16
2023-01-28T00:16:51.041Z,99809.97
2023-01-28T00:19:25.413Z,99808.38
2023-01-28T00:22:04.761Z,99813.81
2023-01-28T00:24:44.133Z,99812.13
2023-01-28T00:27:23.889Z,99815.91
2023-01-28T00:29:58.093Z,99816.84
2023-01-28T00:32:32.848Z,99803.91
2023-01-28T00:35:13.457Z,99808.97
2023-01-28T00:37:53.293Z,99819.56
2023-01-28T00:40:37.855Z,99816.22
2023-01-28T00:43:15.387Z,99813.91
2023-01-28T00:45:56.571Z,99815.53
2023-01-28T00:48:32.530Z,99813.91
2023-01-28T00:51:09.768Z,99822.91
2023-01-28T00:53:44.287Z,99824.63
2023-01-28T00:56:25.010Z,99822.91
2023-01-28T00:59:08.387Z,99819.88
2023-01-28T01:01:52.338Z,99820.47
2023-01-28T01:04:35.400Z,99821.28
2023-01-28T01:07:18.614Z,99827.59
2023-01-28T01:10:01.976Z,99822.91
2023-01-28T01:12:39.742Z,99820.38
2023-01-28T01:15:13.913Z,99826.75
2023-01-28T01:17:47.865Z,99824.19
2023-01-28T01:20:30.501Z,99824.44
2023-01-28T01:23:00.221Z,99829.97
2023-01-28T01:25:41.857Z,99826.72
2023-01-28T01:28:20.739Z,99824.69
2023-01-28T01:31:19.149Z,99820.31
2023-01-28T01:34:00.905Z,99824.25
2023-01-28T01:36:50.429Z,99827.84
2023-01-28T01:39:31.549Z,99825.25
2023-01-28T01:42:04.245Z,99828.38
2023-01-28T01:44:57.803Z,99825.09
2023-01-28T01:47:43.897Z,99842.56
2023-01-28T01:50:58.258Z,99836.72
2023-01-28T01:53:37.621Z,99836.09
2023-01-28T01:56:24.199Z,99834.44
2023-01-28T01:58:55.908Z,99838.75
2023-01-28T02:01:36.321Z,99833.44
2023-01-28T02:04:32.123Z,99836.78
2023-01-28T02:07:08.841Z,99835.97
2023-01-28T02:09:49.055Z,99837.16
2023-01-28T02:12:28.538Z,99829.19
2023-01-28T02:15:06.188Z,99833.31
2023-01-28T02:17:40.453Z,99837.56
2023-01-28T02:20:35.942Z,99832.47
2023-01-28T02:23:29.505Z,99824.13
2023-01-28T02:26:25.572Z,99825.19
2023-01-28T02:29:21.036Z,99834.38
2023-01-28T02:32:30.748Z,99828.75
2023-01-28T02:35:17.955Z,99831.56
2023-01-28T02:38:07.469Z,99826.84
2023-01-28T02:41:02.212Z,99828.38
2023-01-28T02:43:47.411Z,99830.03
2023-01-28T02:46:53.920Z,99833.44
2023-01-28T02:49:40.248Z,99832.88
2023-01-28T02:52:55.735Z,99829.66
2023-01-28T02:56:07.960Z,99832.56
2023-01-28T02:58:55.677Z,99825.47
2023-01-28T03:01:39.429Z,99820.53
2023-01-28T03:04:33.294Z,99832.09
2023-01-28T03:07:12.922Z,99831.28
2023-01-28T03:09:51.320Z,99838.56
2023-01-28T03:12:44.954Z,99828.22
2023-01-28T03:16:07.275Z,99828.81
2023-01-28T03:19:13.675Z,99827.63
2023-01-28T03:22:03.701Z,99833.75
2023-01-28T03:25:11.062Z,99818.00
2023-01-28T03:28:29.492Z,99827.94
2023-01-28T03:31:31.832Z,99833.63
2023-01-28T03:34:28.613Z,99832.41
2023-01-28T03:37:02.944Z,99826.84
2023-01-28T03:39:58.617Z,99825.56
2023-01-28T03:42:36.488Z,99824.50
2023-01-28T03:45:39.580Z,99834.53
2023-01-28T03:48:19.334Z,99828.50
2023-01-28T03:51:00.371Z,99833.44
2023-01-28T03:53:42.797Z,99827.09
2023-01-28T03:56:24.567Z,99831.34
2023-01-28T03:59:01.504Z,99837.03
2023-01-28T04:01:37.313Z,99837.25
2023-01-28T04:04:23.065Z,99835.59
2023-01-28T04:07:01.522Z,99834.59
2023-01-28T04:10:02.116Z,99827.31
2023-01-28T04:12:58.870Z,99840.22
2023-01-28T04:15:31.003Z,99840.53
2023-01-28T04:18:03.289Z,99833.38
2023-01-28T04:20:43.240Z,99843.19
2023-01-28T04:23:19.763Z,99849.50
2023-01-28T04:25:55.761Z,99846.16
2023-01-28T04:28:35.638Z,99846.66
2023-01-28T04:31:13.319Z,99845.84
2023-01-28T04:34:26.769Z,99842.34
2023-01-28T04:37:26.887Z,99847.88
2023-01-28T04:40:21.471Z,99847.13
2023-01-28T04:43:13.516Z,99846.84
2023-01-28T04:45:59.304Z,99851.84
2023-01-28T04:48:48.150Z,99858.31
2023-01-28T04:51:43.850Z,99858.63
2023-01-28T04:54:39.272Z,99854.72
2023-01-28T04:57:17.446Z,99856.72
2023-01-28T04:59:52.510Z,99865.53
2023-01-28T05:02:24.746Z,99859.81
2023-01-28T05:05:06.174Z,99866.34
2023-01-28T05:07:59.828Z,99863.16
2023-01-28T05:10:34.827Z,99868.75
2023-01-28T05:13:13.022Z,99875.97
2023-01-28T05:15:53.919Z,99881.69
2023-01-28T05:18:35.640Z,99882.44
2023-01-28T05:21:21.856Z,99879.34
2023-01-28T05:24:13.063Z,99882.16
2023-01-28T05:26:51.327Z,99876.53
2023-01-28T05:29:26.903Z,99882.22
2023-01-28T05:32:01.609Z,99883.81
2023-01-28T05:34:47.677Z,99887.94
2023-01-28T05:37:29.682Z,99888.81
2023-01-28T05:40:10.965Z,99891.19
2023-01-28T05:42:43.640Z,99886.72
2023-01-28T05:45:47.908Z,99890.03
2023-01-28T05:48:38.986Z,99886.41
2023-01-28T05:51:37.429Z,99900.75
2023-01-28T05:54:11.204Z,99894.69
2023-01-28T05:56:49.727Z,99898.56
2023-01-28T05:59:28.434Z,99894.53
2023-01-28T06:02:05.152Z,99903.41
2023-01-28T06:04:40.265Z,99901.59
2023-01-28T06:07:20.385Z,99910.09
2023-01-28T06:09:58.947Z,99907.88
2023-01-28T06:12:45.228Z,99917.06
2023-01-28T06:15:49.194Z,99916.03
2023-01-28T06:18:44.375Z,99927.78
2023-01-28T06:21:22.441Z,99933.94
2023-01-28T06:24:06.660Z,99928.91
2023-01-28T06:26:43.898Z,99930.66
2023-01-28T06:29:14.365Z,99928.75
2023-01-28T06:31:46.928Z,99933.78
2023-01-28T06:34:21.313Z,99939.56
2023-01-28T06:36:58.829Z,99940.72
2023-01-28T06:39:41.068Z,99943.03
2023-01-28T06:42:13.009Z,99942.91
2023-01-28T06:44:56.335Z,99943.97
2023-01-28T06:47:37.548Z,99950.50
2023-01-28T06:50:10.163Z,99948.31
2023-01-28T06:52:55.353Z,99955.13
2023-01-28T06:55:33.237Z,99953.06
2023-01-28T06:58:08.712Z,99961.13
2023-01-28T07:00:46.655Z,99953.81
2023-01-28T07:03:17.599Z,99958.63
2023-01-28T07:05:50.393Z,99958.00
2023-01-28T07:08:25.328Z,99963.88
2023-01-28T07:11:04.091Z,99966.22
2023-01-28T07:13:41.138Z,99973.59
2023-01-28T07:16:20.100Z,99978.78
2023-01-28T07:18:52.444Z,99975.63
2023-01-28T07:21:29.754Z,99972.81
2023-01-28T07:24:08.428Z,99985.75
2023-01-28T07:26:43.691Z,99986.50
2023-01-28T07:29:22.285Z,99985.09
2023-01-28T07:32:05.288Z,99996.59
2023-01-28T07:34:46.839Z,99987.88
2023-01-28T07:37:27.396Z,99992.88
2023-01-28T07:40:00.128Z,100002.47
2023-01-28T07:42:34.395Z,100000.69
2023-01-28T07:45:13.761Z,100005.63
2023-01-28T07:47:53.382Z,100005.91
2023-01-28T07:50:36.235Z,99997.41
2023-01-28T07:53:17.837Z,99997.50
2023-01-28T07:55:50.508Z,100006.84
2023-01-28T07:58:32.681Z,100001.94
2023-01-28T08:01:08.404Z,100004.81
2023-01-28T08:03:40.469Z,100008.84
2023-01-28T08:06:13.724Z,100014.69
2023-01-28T08:08:48.712Z,100018.78
2023-01-28T08:11:33.910Z,100016.06
2023-01-28T08:14:12.821Z,100015.69
2023-01-28T08:16:53.731Z,100017.06
2023-01-28T08:19:37.257Z,100019.25
2023-01-28T08:22:06.055Z,100019.13
2023-01-28T08:24:48.964Z,100012.91
2023-01-28T08:27:28.936Z,100019.28
2023-01-28T08:30:09.763Z,100016.53
2023-01-28T08:32:47.493Z,100028.19
2023-01-28T08:35:22.729Z,100027.41
2023-01-28T08:38:01.092Z,100034.84
2023-01-28T08:40:41.208Z,100034.84
2023-01-28T08:43:26.667Z,100033.13
2023-01-28T08:46:03.952Z,100032.69
2023-01-28T08:48:41.769Z,100034.53
2023-01-28T08:51:14.053Z,100028.34
2023-01-28T08:53:51.603Z,100040.25
2023-01-28T08:56:30.689Z,100037.22
2023-01-28T08:59:08.041Z,100036.41
2023-01-28T09:01:50.624Z,100038.88
2023-01-28T09:04:28.763Z,100031.03
2023-01-28T09:07:02.041Z,100033.78
2023-01-28T09:09:37.006Z,100036.91
2023-01-28T09:12:17.701Z,100037.69
2023-01-28T09:15:01.193Z,100039.06
2023-01-28T09:17:37.339Z,100052.47
2023-01-28T09:20:19.340Z,100050.50
2023-01-28T09:22:54.254Z,100053.22
2023-01-28T09:25:39.098Z,100053.63
2023-01-28T09:28:11.783Z,100056.59
2023-01-28T09:30:49.399Z,100056.31
2023-01-28T09:33:27.716Z,100049.53
2023-01-28T09:36:10.210Z,100051.47
2023-01-28T09:38:48.778Z,100054.44
2023-01-28T09:41:37.094Z,100051.19
2023-01-28T09:44:31.724Z,100053.53
2023-01-28T09:47:38.254Z,100048.41
2023-01-28T09:50:23.175Z,100051.34
2023-01-28T09:53:06.758Z,100047.03
2023-01-28T09:55:44.748Z,100054.44
2023-01-28T09:58:19.852Z,100053.84
2023-01-28T10:01:18.737Z,100054.78
2023-01-28T10:04:01.918Z,100052.47
2023-01-28T10:07:06.260Z,100050.31
2023-01-28T10:10:08.138Z,100041.72
2023-01-28T10:13:10.978Z,100046.09
2023-01-28T10:15:53.844Z,100046.94
2023-01-28T10:18:54.429Z,100048.63
2023-01-28T10:21:36.559Z,100047.59
2023-01-28T10:24:17.337Z,100051.28
2023-01-28T10:26:53.423Z,100045.41
2023-01-28T10:29:39.836Z,100038.28
2023-01-28T10:32:36.848Z,100047.47
2023-01-28T10:35:16.038Z,100042.41
2023-01-28T10:38:13.977Z,100047.34
2023-01-28T10:40:57.847Z,100046.50
2023-01-28T10:43:32.665Z,100051.31
2023-01-28T10:46:09.391Z,100055.19
2023-01-28T10:49:06.175Z,100043.19
2023-01-28T10:51:45.376Z,100049.19
2023-01-28T10:54:32.813Z,100043.69
2023-01-28T10:57:28.307Z,100043.69
2023-01-28T11:00:32.385Z,100042.84
2023-01-28T11:03:12.327Z,100051.03
2023-01-28T11:05:56.803Z,100050.03
2023-01-28T11:08:34.131Z,100049.53
2023-01-28T11:11:21.975Z,100045.84
2023-01-28T11:14:04.356Z,100046.16
2023-01-28T11:16:45.335Z,100047.50
2023-01-28T11:19:28.070Z,100043.00
2023-01-28T11:22:01.329Z,100032.47
2023-01-28T11:24:39.758Z,100031.31
2023-01-28T11:27:28.348Z,100035.66
2023-01-28T11:30:07.363Z,100032.97
2023-01-28T11:32:49.919Z,100029.81
2023-01-28T11:35:27.832Z,100029.63
2023-01-28T11:38:25.028Z,100028.81
2023-01-28T11:41:11.666Z,100031.81
2023-01-28T11:43:55.769Z,100026.63
2023-01-28T11:46:43.521Z,100023.28
2023-01-28T11:49:48.488Z,100024.28
2023-01-28T11:53:08.147Z,100022.94
2023-01-28T11:56:03.003Z,100033.47
2023-01-28T11:58:59.110Z,100029.47
2023-01-28T12:01:37.941Z,100027.94
2023-01-28T12:04:24.376Z,100022.66
2023-01-28T12:07:25.118Z,100010.91
2023-01-28T12:10:15.801Z,100023.72
2023-01-28T12:12:57.875Z,100017.25
2023-01-28T12:16:06.089Z,100024.97
2023-01-28T12:18:55.556Z,100019.94
2023-01-28T12:22:07.628Z,100019.63
2023-01-28T12:25:28.873Z,100018.13
2023-01-28T12:28:15.825Z,100017.59
2023-01-28T12:31:09.181Z,100022.28
2023-01-28T12:34:11.714Z,100025.25
2023-01-28T12:37:01.570Z,100020.28
2023-01-28T12:39:42.893Z,100022.94
2023-01-28T12:42:26.948Z,100012.56
2023-01-28T12:45:18.606Z,100025.41
2023-01-28T12:48:06.706Z,100019.81
2023-01-28T12:50:58.888Z,100025.91
2023-01-28T12:53:51.890Z,100026.72
2023-01-28T12:56:30.091Z,100025.75
2023-01-28T12:59:16.776Z,100022.34
2023-01-28T13:02:02.976Z,100026.00
2023-01-28T13:05:05.966Z,100031.53
2023-01-28T13:07:53.560Z,100027.13
2023-01-28T13:10:35.398Z,100031.19
2023-01-28T13:13:22.921Z,100033.47
2023-01-28T13:16:03.819Z,100036.16
2023-01-28T13:18:57.722Z,100036.88
2023-01-28T13:21:47.680Z,100040.53
2023-01-28T13:24:40.895Z,100049.25
2023-01-28T13:27:29.405Z,100040.72
2023-01-28T13:30:36.764Z,100052.31
2023-01-28T13:33:32.341Z,100057.59
2023-01-28T13:36:28.411Z,100061.44
2023-01-28T13:39:25.470Z,100063.63
2023-01-28T13:42:11.984Z,100063.63
2023-01-28T13:44:49.692Z,100065.50
2023-01-28T13:47:42.738Z,100067.69
2023-01-28T13:50:27.559Z,100065.72
2023-01-28T13:53:10.292Z,100073.75
2023-01-28T13:55:48.321Z,100084.44
2023-01-28T13:58:51.811Z,100078.59
2023-01-28T14:02:00.430Z,100078.06
2023-01-28T14:04:53.931Z,100075.44
2023-01-28T14:08:02.149Z,100080.78
2023-01-28T14:10:44.097Z,100078.78
2023-01-28T14:13:51.841Z,100072.09
2023-01-28T14:16:24.328Z,100081.25
2023-01-28T14:19:07.295Z,100084.44
2023-01-28T14:21:44.656Z,100088.44
2023-01-28T14:24:30.495Z,100094.78
2023-01-28T14:27:23.653Z,100092.78
2023-01-28T14:30:10.805Z,100088.41
2023-01-28T14:32:47.337Z,100091.78
2023-01-28T14:35:36.525Z,100097.25
2023-01-28T14:38:17.285Z,100096.59
2023-01-28T14:40:58.440Z,100099.94
2023-01-28T14:43:40.052Z,100101.44
2023-01-28T14:46:30.844Z,100102.41
2023-01-28T14:49:35.398Z,100114.25
2023-01-28T14:52:29.960Z,100107.41
2023-01-28T14:55:39.550Z,100112.25
2023-01-28T14:58:19.350Z,100114.72
2023-01-28T15:01:09.005Z,100112.25
2023-01-28T15:03:56.310Z,100110.00
2023-01-28T15:06:43.885Z,100122.19
2023-01-28T15:09:26.730Z,100120.13
2023-01-28T15:12:10.382Z,100124.00
2023-01-28T15:14:44.446Z,100125.69
2023-01-28T15:17:38.581Z,100129.88
2023-01-28T15:20:19.908Z,100125.03
2023-01-28T15:23:01.280Z,100139.31
2023-01-28T15:25:39.744Z,100137.66
2023-01-28T15:28:22.259Z,100147.09
2023-01-28T15:31:00.259Z,100143.41
2023-01-28T15:33:41.062Z,100148.63
2023-01-28T15:36:26.387Z,100154.94
2023-01-28T15:39:09.883Z,100148.75
2023-01-28T15:41:47.625Z,100151.28
2023-01-28T15:44:42.220Z,100155.75
2023-01-28T15:47:33.822Z,100170.22
2023-01-28T15:50:17.945Z,100165.31
2023-01-28T15:52:57.105Z,100171.84
2023-01-28T15:55:43.800Z,100167.09
2023-01-28T15:58:33.373Z,100175.56
2023-01-28T16:01:33.884Z,100179.84
2023-01-28T16:04:24.707Z,100180.69
2023-01-28T16:07:05.333Z,100186.66
2023-01-28T16:09:46.300Z,100186.72
2023-01-28T16:12:21.524Z,100198.16
2023-01-28T16:15:08.921Z,100192.88
2023-01-28T16:17:51.182Z,100193.47
2023-01-28T16:20:38.388Z,100191.69
2023-01-28T16:23:27.088Z,100193.84
2023-01-28T16:26:26.289Z,100206.16
2023-01-28T16:29:19.012Z,100195.81
2023-01-28T16:31:56.186Z,100215.06
2023-01-28T16:34:44.637Z,100224.44
2023-01-28T16:37:22.138Z,100219.19
2023-01-28T16:40:10.561Z,100226.09
2023-01-28T16:42:56.946Z,100219.47
2023-01-28T16:45:37.807Z,100223.59
2023-01-28T16:48:07.464Z,100220.09
2023-01-28T16:50:49.581Z,100216.66
2023-01-28T16:53:34.566Z,100218.72
2023-01-28T16:56:35.905Z,100219.41
2023-01-28T16:59:32.316Z,100218.56
2023-01-28T17:02:13.377Z,100217.88
2023-01-28T17:04:52.223Z,100222.06
2023-01-28T17:07:32.549Z,100223.72
2023-01-28T17:10:14.101Z,100226.34
2023-01-28T17:12:54.489Z,100227.47
2023-01-28T17:15:45.796Z,100224.59
2023-01-28T17:18:23.964Z,100230.56
2023-01-28T17:21:12.007Z,100233.84
2023-01-28T17:23:48.760Z,100242.97
2023-01-28T17:26:28.947Z,100234.22
2023-01-28T17:29:03.742Z,100237.16
2023-01-28T17:31:34.494Z,100238.19
2023-01-28T17:34:17.178Z,100238.47
2023-01-28T17:36:49.959Z,100250.28
2023-01-28T17:39:33.420Z,100252.38
2023-01-28T17:42:16.905Z,100249.63
2023-01-28T17:44:58.075Z,100261.03
2023-01-28T17:47:32.618Z,100255.56
2023-01-28T17:50:10.978Z,100258.00
2023-01-28T17:52:53.904Z,100260.63
2023-01-28T17:55:37.897Z,100264.03
2023-01-28T17:58:13.062Z,100270.50
2023-01-28T18:00:54.245Z,100260.59
2023-01-28T18:03:37.711Z,100270.88
2023-01-28T18:06:12.009Z,100277.47
2023-01-28T18:08:43.488Z,100280.00
2023-01-28T18:11:19.754Z,100281.53
2023-01-28T18:13:57.193Z,100280.81
2023-01-28T18:16:44.244Z,100285.88
2023-01-28T18:19:24.516Z,100285.47
2023-01-28T18:22:11.445Z,100287.94
2023-01-28T18:24:51.601Z,100285.28
2023-01-28T18:27:35.214Z,100291.03
2023-01-28T18:30:14.161Z,100295.84
2023-01-28T18:32:54.460Z,100291.06
2023-01-28T18:35:37.555Z,100297.09
2023-01-28T18:38:12.800Z,100295.19
2023-01-28T18:40:54.078Z,100299.00
2023-01-28T18:43:32.581Z,100302.44
2023-01-28T18:46:18.719Z,100301.66
2023-01-28T18:48:53.456Z,100293.16
2023-01-28T18:51:36.741Z,100298.28
2023-01-28T18:54:15.633Z,100302.78
2023-01-28T18:56:53.975Z,100304.72
2023-01-28T18:59:31.753Z,100305.84
2023-01-28T19:02:19.768Z,100315.97
2023-01-28T19:05:02.870Z,100308.75
2023-01-28T19:07:41.103Z,100316.44
2023-01-28T19:10:27.017Z,100310.50
2023-01-28T19:13:05.486Z,100312.94
2023-01-28T19:15:45.341Z,100318.09
2023-01-28T19:18:24.275Z,100322.78
2023-01-28T19:20:58.998Z,100312.44
2023-01-28T19:23:48.849Z,100318.28
2023-01-28T19:26:30.003Z,100320.84
2023-01-28T19:29:18.927Z,100327.13
2023-01-28T19:32:01.939Z,100325.75
2023-01-28T19:34:42.134Z,100328.56
2023-01-28T19:37:15.558Z,100332.75
2023-01-28T19:39:58.736Z,100332.09
2023-01-28T19:42:38.955Z,100339.66
2023-01-28T19:45:19.580Z,100342.31
2023-01-28T19:47:57.649Z,100351.13
2023-01-28T19:50:43.528Z,100347.88
2023-01-28T19:53:29.172Z,100357.44
2023-01-28T19:56:04.678Z,100357.00
2023-01-28T19:58:46.236Z,100367.22
2023-01-28T20:01:23.859Z,100362.88
2023-01-28T20:04:08.236Z,100364.84
2023-01-28T20:06:49.370Z,100369.88
2023-01-28T20:09:28.426Z,100369.31
2023-01-28T20:12:14.980Z,100367.09
2023-01-28T20:15:01.647Z,100373.09
2023-01-28T20:17:37.003Z,100374.34
2023-01-28T20:20:17.274Z,100373.53
2023-01-28T20:22:55.260Z,100372.41
2023-01-28T20:25:35.110Z,100365.53
2023-01-28T20:28:13.194Z,100370.16
2023-01-28T20:30:49.497Z,100366.78
2023-01-28T20:33:27.609Z,100372.13
2023-01-28T20:36:22.230Z,100373.38
2023-01-28T20:39:03.698Z,100371.16
2023-01-28T20:41:41.695Z,100378.53
2023-01-28T20:44:22.010Z,100380.53
2023-01-28T20:47:06.356Z,100387.50
2023-01-28T20:49:40.660Z,100390.72
2023-01-28T20:52:21.756Z,100388.75
2023-01-28T20:54:55.127Z,100398.72
2023-01-28T20:57:31.909Z,100403.47
2023-01-28T21:00:08.179Z,100398.03
2023-01-28T21:02:54.706Z,100406.13
2023-01-28T21:05:37.941Z,100403.03
2023-01-28T21:08:18.322Z,100416.63
2023-01-28T21:10:54.432Z,100417.06
2023-01-28T21:13:40.691Z,100419.03
2023-01-28T21:16:32.454Z,100415.09
2023-01-28T21:19:07.648Z,100412.88
2023-01-28T21:21:47.447Z,100417.34
2023-01-28T21:24:28.764Z,100416.34
2023-01-28T21:27:10.277Z,100414.94
2023-01-28T21:29:44.930Z,100415.09
2023-01-28T21:32:28.315Z,100422.38
2023-01-28T21:35:00.699Z,100430.06
2023-01-28T21:37:45.981Z,100420.41
2023-01-28T21:40:26.867Z,100425.72
2023-01-28T21:43:04.287Z,100422.22
2023-01-28T21:45:48.506Z,100413.13
2023-01-28T21:48:27.207Z,100416.38
2023-01-28T21:51:21.927Z,100415.66
2023-01-28T21:53:57.237Z,100414.25
2023-01-28T21:56:37.563Z,100417.06
2023-01-28T21:59:29.008Z,100420.84
2023-01-28T22:02:02.483Z,100426.72
2023-01-28T22:04:44.269Z,100421.53
2023-01-28T22:07:25.683Z,100427.00
2023-01-28T22:10:03.941Z,100422.09
2023-01-28T22:12:42.321Z,100423.34
2023-01-28T22:15:20.839Z,100417.75
2023-01-28T22:18:04.691Z,100416.09
2023-01-28T22:20:44.533Z,100426.56
2023-01-28T22:23:24.954Z,100423.91
2023-01-28T22:26:03.493Z,100422.38
2023-01-28T22:28:41.304Z,100432.59
2023-01-28T22:31:30.675Z,100433.16
2023-01-28T22:34:08.362Z,100442.38
2023-01-28T22:36:58.366Z,100438.75
2023-01-28T22:39:36.440Z,100442.66
2023-01-28T22:42:14.033Z,100439.72
2023-01-28T22:44:43.379Z,100438.19
2023-01-28T22:47:26.398Z,100445.44
2023-01-28T22:50:09.548Z,100444.34
2023-01-28T22:52:50.343Z,100450.22
2023-01-28T22:55:29.268Z,100446.84
2023-01-28T22:58:09.543Z,100451.34
2023-01-28T23:00:45.057Z,100447.69
2023-01-28T23:03:17.817Z,100453.97
2023-01-28T23:06:09.547Z,100453.41
2023-01-28T23:08:43.639Z,100453.41
2023-01-28T23:11:28.746Z,100451.19
2023-01-28T23:14:26.134Z,100452.16
2023-01-28T23:17:19.995Z,100458.44
2023-01-28T23:20:11.209Z,100456.44
2023-01-28T23:23:05.062Z,100459.66
2023-01-28T23:25:40.557Z,100460.94
2023-01-28T23:28:13.130Z,100454.50
2023-01-28T23:30:58.775Z,100456.31
2023-01-28T23:33:40.269Z,100457.19
2023-01-28T23:36:18.021Z,100455.09
2023-01-28T23:39:08.421Z,100457.19
2023-01-28T23:41:46.612Z,100455.03
2023-01-28T23:44:36.518Z,100453.25
2023-01-28T23:47:12.368Z,100446.25
2023-01-28T23:49:51.249Z,100457.53
2023-01-28T23:52:38.642Z,100459.13
2023-01-28T23:55:22.751Z,100458.84
2023-01-28T23:58:02.798Z,100463.69
